Time;durP1;ratioP1;P1;durP2;ratioP2;P2;SDS_P1;SDS_P2;PMS_P1;PMS_P2;Temp;Humidity;BMP_temperature;BMP_pressure;BME280_temperature;BME280_humidity;BME280_pressure;Samples;Min_cycle;Max_cycle;Signal;HPM_P1;HPM_P2
2021/08/16 00:08:50;;;;;;;10.23;4.70;;;;;;;22.33;59.15;100219.91;2584698;54;20984;31
2021/08/16 00:11:19;;;;;;;8.73;4.80;;;;;;;22.16;59.23;100212.56;2585241;54;20026;31
2021/08/16 00:28:39;;;;;;;8.20;4.60;;;;;;;21.73;60.72;100203.53;2585039;54;20250;31
2021/08/16 00:31:09;;;;;;;6.50;4.40;;;;;;;21.74;61.77;100205.19;2584705;54;20881;31
2021/08/16 00:33:38;;;;;;;5.85;4.40;;;;;;;22.05;61.24;100196.94;2585102;46;20054;31
2021/08/16 00:36:07;;;;;;;6.80;4.40;;;;;;;22.17;61.15;100203.81;2585651;46;20529;31
2021/08/16 01:05:53;;;;;;;6.97;4.95;;;;;;;20.78;64.74;100180.84;2683843;39;22355;31
2021/08/16 01:08:23;;;;;;;7.40;4.30;;;;;;;21.61;62.48;100172.53;2683961;39;21202;31
2021/08/16 01:13:20;;;;;;;6.60;4.83;;;;;;;21.72;62.64;100170.84;2584490;54;20840;31
2021/08/16 01:16:00;;;;;;;7.60;4.70;;;;;;;21.58;62.42;100174.41;2584603;54;20978;31
2021/08/16 01:21:06;;;;;;;9.70;5.50;;;;;;;21.50;63.42;100170.69;2584485;54;20054;31
2021/08/16 01:31:04;;;;;;;9.70;5.50;;;;;;;20.70;65.18;100171.84;2682946;39;22377;31
2021/08/16 01:33:36;;;;;;;6.97;4.57;;;;;;;20.97;65.34;100171.75;2584725;54;20950;31
2021/08/16 01:36:05;;;;;;;7.30;4.80;;;;;;;21.27;63.71;100174.03;2585449;54;21676;31
2021/08/16 01:41:02;;;;;;;9.97;4.60;;;;;;;20.81;65.60;100178.03;2584358;54;20068;31
2021/08/16 01:43:32;;;;;;;5.70;4.57;;;;;;;21.74;62.11;100168.97;2585487;47;20027;31
2021/08/16 01:53:27;;;;;;;7.07;5.22;;;;;;;21.15;62.89;100177.47;2584479;54;20618;31
2021/08/16 01:55:56;;;;;;;8.10;5.60;;;;;;;20.88;63.99;100181.91;2583830;54;20030;31
2021/08/16 01:58:25;;;;;;;10.95;6.40;;;;;;;20.79;64.61;100183.31;2583867;54;20031;31
2021/08/16 02:00:54;;;;;;;8.90;5.50;;;;;;;21.07;62.10;100164.22;2683195;39;20653;31
2021/08/16 02:33:07;;;;;;;11.50;5.80;;;;;;;21.48;62.12;100167.38;2585414;54;21011;31
2021/08/16 02:45:31;;;;;;;8.30;5.38;;;;;;;20.21;65.27;100180.31;2585354;54;20963;31
2021/08/16 02:48:00;;;;;;;7.95;5.60;;;;;;;20.43;64.32;100178.81;2584972;54;20042;31
2021/08/16 02:50:29;;;;;;;12.00;6.07;;;;;;;20.63;64.90;100182.69;2585190;46;20835;31
2021/08/16 02:52:58;;;;;;;9.05;5.70;;;;;;;19.94;65.91;100171.72;2585563;54;20133;31
2021/08/16 03:07:53;;;;;;;9.40;5.85;;;;;;;20.32;65.20;100172.69;2753877;31;20639;31
2021/08/16 03:10:23;;;;;;;8.47;5.67;;;;;;;20.26;65.91;100168.78;2585486;46;20944;31
2021/08/16 03:12:52;;;;;;;12.13;5.78;;;;;;;19.43;68.07;100168.84;2585519;46;20289;31
2021/08/16 03:15:21;;;;;;;11.43;5.77;;;;;;;20.94;65.55;100173.69;2585278;54;20013;31
2021/08/16 03:17:51;;;;;;;11.02;5.63;;;;;;;20.85;63.79;100166.56;2585708;54;20026;31
2021/08/16 03:37:38;;;;;;;11.60;7.10;;;;;;;19.60;67.03;100181.56;2585186;54;21765;31
2021/08/16 03:40:09;;;;;;;11.13;6.20;;;;;;;19.81;67.20;100193.13;2586051;46;20288;31
2021/08/16 03:47:38;;;;;;;13.90;7.70;;;;;;;20.00;66.20;100182.47;2585039;54;20105;31
2021/08/16 03:50:07;;;;;;;11.50;6.60;;;;;;;20.81;64.05;100193.56;2589498;46;20049;31
2021/08/16 04:02:31;;;;;;;10.55;6.95;;;;;;;20.04;66.26;100190.84;2634100;39;20915;-69
2021/08/16 04:04:58;;;;;;;12.88;6.97;;;;;;;19.92;67.44;100192.47;2630741;54;20072;-69
2021/08/16 04:07:23;;;;;;;15.15;7.05;;;;;;;20.04;66.68;100191.69;2631600;39;20403;-69
2021/08/16 04:09:50;;;;;;;13.07;8.13;;;;;;;20.05;67.95;100189.91;2630041;54;20872;-68
2021/08/16 04:12:16;;;;;;;13.85;7.25;;;;;;;20.99;64.95;100194.91;2629715;54;20003;-70
2021/08/16 04:17:10;;;;;;;16.27;8.23;;;;;;;20.22;66.19;100200.88;2623150;54;20054;-69
2021/08/16 04:19:37;;;;;;;17.70;7.90;;;;;;;20.92;64.26;100196.28;2629245;54;19991;-69
2021/08/16 04:22:03;;;;;;;16.77;8.23;;;;;;;20.22;66.00;100210.38;2607463;54;21028;-70
2021/08/16 04:24:32;;;;;;;13.27;7.93;;;;;;;20.68;65.31;100201.28;2602339;54;20034;31
2021/08/16 04:26:58;;;;;;;18.10;9.05;;;;;;;20.52;64.40;100198.06;2630123;54;19958;-69
2021/08/16 04:31:56;;;;;;;15.52;9.00;;;;;;;20.00;66.52;100189.38;2598861;54;20030;31
2021/08/16 04:34:25;;;;;;;15.45;8.77;;;;;;;19.46;67.87;100184.16;2586550;54;21267;31
2021/08/16 04:36:54;;;;;;;14.35;8.60;;;;;;;20.40;67.30;100186.75;2682625;39;20668;31
2021/08/16 04:39:23;;;;;;;14.75;8.90;;;;;;;19.88;67.70;100191.84;2658780;31;21506;31
2021/08/16 04:41:50;;;;;;;21.52;11.63;;;;;;;20.52;65.50;100196.28;2628856;47;20032;-69
2021/08/16 04:44:16;;;;;;;18.38;10.35;;;;;;;20.86;65.26;100201.84;2629226;47;20009;-69
2021/08/16 04:46:43;;;;;;;18.05;8.90;;;;;;;20.25;66.50;100190.34;2628680;54;20002;-69
2021/08/16 04:49:10;;;;;;;17.20;7.55;;;;;;;19.81;68.83;100192.28;2627126;54;20526;-67
2021/08/16 04:51:36;;;;;;;12.10;8.13;;;;;;;20.13;66.96;100198.84;2627455;54;20041;-69
2021/08/16 04:54:01;;;;;;;16.85;7.70;;;;;;;20.20;66.83;100195.00;2628334;46;20002;-71
2021/08/16 04:56:28;;;;;;;13.50;7.82;;;;;;;20.42;66.99;100200.41;2629356;54;19987;-70
2021/08/16 04:58:56;;;;;;;15.57;8.50;;;;;;;20.69;65.70;100198.63;2629228;46;20002;-70
2021/08/16 05:01:22;;;;;;;14.40;7.65;;;;;;;20.80;65.12;100204.84;2628785;54;20010;-70
2021/08/16 05:03:48;;;;;;;10.18;6.97;;;;;;;20.94;65.26;100196.97;2629524;54;20002;-69
2021/08/16 05:06:28;;;;;;;13.00;7.30;;;;;;;21.11;64.39;100209.63;2630023;54;20038;-71
2021/08/16 05:08:54;;;;;;;17.25;7.72;;;;;;;21.22;64.12;100197.63;2630025;47;19999;-71
2021/08/16 05:11:29;;;;;;;11.75;6.85;;;;;;;21.35;63.68;100198.44;2629366;54;20017;-70
2021/08/16 05:13:56;;;;;;;12.23;7.05;;;;;;;21.39;63.18;100199.88;2629117;54;20007;-70
2021/08/16 05:16:25;;;;;;;13.25;6.60;;;;;;;21.69;62.72;100202.09;2630078;39;20521;-69
2021/08/16 05:18:53;;;;;;;10.10;6.25;;;;;;;21.88;62.46;100205.09;2628136;54;20053;-69
2021/08/16 05:21:23;;;;;;;10.75;6.20;;;;;;;22.07;61.58;100204.59;2627207;54;20023;-70
2021/08/16 05:23:49;;;;;;;11.60;6.50;;;;;;;22.15;61.19;100205.69;2626779;47;20002;-69
2021/08/16 05:26:14;;;;;;;10.02;6.00;;;;;;;22.67;59.74;100196.75;2626687;47;19998;-68
2021/08/16 05:28:40;;;;;;;9.43;6.03;;;;;;;22.64;59.28;100199.56;2627626;54;20003;-69
2021/08/16 05:31:06;;;;;;;10.15;6.00;;;;;;;22.82;58.68;100200.81;2627298;39;20424;-68
2021/08/16 05:33:33;;;;;;;8.27;5.45;;;;;;;22.54;60.20;100206.34;2626959;54;19998;-68
2021/08/16 05:35:59;;;;;;;8.82;5.97;;;;;;;22.90;58.73;100201.03;2626601;54;20003;-71
2021/08/16 05:38:25;;;;;;;9.10;5.57;;;;;;;23.52;57.69;100197.09;2626167;47;20006;-69
2021/08/16 05:49:05;;;;;;;7.82;5.13;;;;;;;24.28;54.45;100198.81;2627944;39;20077;-70
2021/08/16 05:51:31;;;;;;;8.52;5.47;;;;;;;24.12;55.85;100201.84;2627417;54;20041;-68
2021/08/16 05:53:56;;;;;;;11.88;5.40;;;;;;;23.92;55.09;100202.56;2629838;54;20022;-70
2021/08/16 06:01:27;;;;;;;10.55;5.40;;;;;;;24.61;53.98;100204.69;2631951;39;20434;-71
2021/08/16 06:03:55;;;;;;;8.32;4.97;;;;;;;25.00;52.52;100190.16;2631989;46;20001;-70
2021/08/16 06:06:20;;;;;;;12.23;6.30;;;;;;;25.21;52.70;100200.56;2632035;54;20050;-71
2021/08/16 06:08:50;;;;;;;9.25;5.15;;;;;;;25.60;51.18;100190.19;2631798;54;19998;-70
2021/08/16 06:11:16;;;;;;;9.55;5.28;;;;;;;25.99;50.23;100200.69;2632143;54;20885;-70
2021/08/16 06:13:41;;;;;;;9.98;5.07;;;;;;;25.53;51.17;100191.66;2631948;54;20009;-70
2021/08/16 06:21:03;;;;;;;7.22;4.80;;;;;;;25.76;50.40;100187.88;2630545;54;20019;-71
2021/08/16 06:23:29;;;;;;;9.23;5.30;;;;;;;25.95;49.86;100191.50;2631155;54;20070;-69
2021/08/16 06:33:20;;;;;;;12.00;5.10;;;;;;;26.69;48.23;100192.56;2631055;54;20031;-70
2021/08/16 06:35:48;;;;;;;6.57;4.72;;;;;;;26.70;48.31;100197.69;2630851;46;20014;-71
2021/08/16 06:40:43;;;;;;;7.57;4.65;;;;;;;27.18;46.10;100194.94;2627326;54;20534;-71
2021/08/16 06:43:08;;;;;;;9.60;4.40;;;;;;;27.11;46.72;100202.56;2624993;46;20018;-70
2021/08/16 06:45:35;;;;;;;7.13;4.32;;;;;;;27.06;45.80;100199.53;2626018;54;20641;-70
2021/08/16 06:48:03;;;;;;;7.05;4.30;;;;;;;27.15;45.96;100198.69;2627089;54;20566;-70
2021/08/16 06:50:29;;;;;;;8.43;4.43;;;;;;;27.37;44.94;100195.72;2626912;54;20063;-72
2021/08/16 06:52:56;;;;;;;7.80;4.10;;;;;;;27.42;44.40;100200.53;2627153;47;20262;-70
2021/08/16 06:55:22;;;;;;;7.13;4.15;;;;;;;28.13;43.62;100198.88;2628089;54;20007;-69
2021/08/16 06:57:48;;;;;;;6.57;4.05;;;;;;;28.37;42.96;100198.25;2627517;54;20010;-69
2021/08/16 07:00:14;;;;;;;6.28;4.20;;;;;;;28.54;43.62;100194.81;2628284;54;20565;-69
2021/08/16 07:02:40;;;;;;;7.90;4.03;;;;;;;28.80;42.45;100204.34;2627141;47;20003;-71
2021/08/16 07:05:07;;;;;;;7.28;4.10;;;;;;;28.17;42.28;100200.22;2627172;46;20070;-69
2021/08/16 07:07:34;;;;;;;6.00;3.90;;;;;;;28.31;41.44;100198.88;2627613;54;20007;-68
2021/08/16 07:10:01;;;;;;;5.45;3.78;;;;;;;28.14;42.35;100198.75;2626918;39;20455;-71
2021/08/16 07:12:27;;;;;;;6.43;3.75;;;;;;;28.21;41.68;100194.53;2625795;54;20006;-70
2021/08/16 07:14:54;;;;;;;6.13;3.65;;;;;;;28.59;42.17;100192.56;2626092;54;20013;-69
2021/08/16 07:17:20;;;;;;;6.38;3.60;;;;;;;28.18;41.01;100199.25;2626465;54;20549;-70
2021/08/16 07:19:47;;;;;;;5.68;3.75;;;;;;;28.65;39.72;100197.22;2625440;47;20006;-70
2021/08/16 07:22:13;;;;;;;5.95;3.92;;;;;;;28.59;40.19;100196.03;2626617;54;20003;-69
2021/08/16 07:24:40;;;;;;;5.30;3.78;;;;;;;29.38;38.98;100185.38;2626678;54;20022;-68
2021/08/16 07:27:07;;;;;;;6.10;3.78;;;;;;;29.55;39.39;100192.31;2626211;47;20014;-69
2021/08/16 07:29:32;;;;;;;8.60;3.50;;;;;;;29.70;38.26;100194.19;2626476;54;20018;-71
2021/08/16 07:31:59;;;;;;;6.78;3.50;;;;;;;29.81;37.83;100188.66;2626245;54;21484;-70
2021/08/16 07:34:25;;;;;;;7.28;3.63;;;;;;;29.36;38.71;100189.94;2626237;54;20006;-71
2021/08/16 07:36:52;;;;;;;4.65;3.55;;;;;;;28.98;39.58;100194.66;2626096;54;20006;-71
2021/08/16 07:42:05;;;;;;;7.20;3.65;;;;;;;30.07;37.63;100191.16;2626339;54;20065;-70
2021/08/16 07:44:31;;;;;;;6.15;3.53;;;;;;;29.94;38.77;100198.69;2624905;47;20034;-69
2021/08/16 07:46:59;;;;;;;4.45;3.20;;;;;;;29.23;38.06;100205.28;2627511;54;20018;-70
2021/08/16 07:49:30;;;;;;;8.45;3.63;;;;;;;29.49;37.21;100198.19;2627619;54;20090;-70
2021/08/16 07:51:57;;;;;;;5.00;3.30;;;;;;;30.83;36.38;100203.97;2627655;47;20010;-68
2021/08/16 07:54:23;;;;;;;5.22;3.50;;;;;;;29.80;37.26;100194.88;2627894;47;20026;-71
2021/08/16 07:56:51;;;;;;;5.05;3.45;;;;;;;29.50;37.26;100194.59;2628221;54;20002;-70
2021/08/16 07:59:20;;;;;;;4.07;3.65;;;;;;;30.06;36.15;100191.31;2627772;46;20014;-72
2021/08/16 08:01:46;;;;;;;6.05;3.75;;;;;;;30.49;36.26;100197.13;2627792;54;20003;-71
2021/08/16 08:04:12;;;;;;;5.22;3.50;;;;;;;29.62;37.77;100193.31;2626945;54;20003;-69
2021/08/16 08:06:39;;;;;;;5.90;3.85;;;;;;;29.77;37.04;100192.56;2626356;47;20002;-72
2021/08/16 08:09:05;;;;;;;6.07;3.75;;;;;;;30.89;36.57;100196.28;2627112;39;20428;-71
2021/08/16 08:11:31;;;;;;;4.53;3.28;;;;;;;30.54;36.17;100196.63;2626492;54;20009;-69
2021/08/16 08:13:57;;;;;;;5.38;3.50;;;;;;;31.23;35.11;100191.59;2627375;54;20011;-70
2021/08/16 08:16:23;;;;;;;7.68;4.15;;;;;;;31.47;35.90;100190.69;2627820;47;20003;-71
2021/08/16 08:18:49;;;;;;;5.55;3.67;;;;;;;31.66;35.41;100192.88;2628028;47;20002;-72
2021/08/16 08:21:16;;;;;;;6.72;3.85;;;;;;;30.92;34.50;100197.75;2628223;46;20006;-69
2021/08/16 08:23:41;;;;;;;7.35;4.32;;;;;;;31.63;33.26;100188.78;2628470;54;20019;-70
2021/08/16 08:26:07;;;;;;;7.55;3.70;;;;;;;31.29;33.43;100182.19;2626510;47;20010;-71
2021/08/16 08:28:32;;;;;;;10.38;4.03;;;;;;;31.70;33.19;100186.28;2627583;54;20006;-70
2021/08/16 08:30:59;;;;;;;9.07;3.97;;;;;;;32.02;32.74;100178.22;2628418;54;20041;-70
2021/08/16 08:33:25;;;;;;;5.53;3.80;;;;;;;31.96;33.27;100175.47;2628345;54;20014;-70
2021/08/16 08:35:52;;;;;;;6.10;3.90;;;;;;;31.33;34.01;100178.22;2628101;39;20430;-70
2021/08/16 08:38:19;;;;;;;6.93;4.35;;;;;;;31.99;33.06;100170.66;2628325;54;20019;-69
2021/08/16 08:40:46;;;;;;;5.18;3.90;;;;;;;32.04;33.57;100170.13;2629150;54;20002;-71
2021/08/16 08:54:05;;;;;;;5.72;4.15;;;;;;;31.26;33.10;100162.31;2625670;54;20158;-71
2021/08/16 08:56:31;;;;;;;7.80;3.78;;;;;;;32.03;32.55;100156.16;2628084;54;20557;-70
2021/08/16 08:59:00;;;;;;;8.40;4.03;;;;;;;31.71;32.38;100158.19;2627057;54;20019;-74
2021/08/16 09:01:27;;;;;;;6.57;3.83;;;;;;;32.07;31.92;100152.19;2628308;54;20038;-72
2021/08/16 09:03:55;;;;;;;5.88;3.80;;;;;;;32.84;30.98;100150.97;2628304;54;20019;-71
2021/08/16 09:06:48;;;;;;;12.45;4.30;;;;;;;32.60;31.57;100147.78;2628972;47;20032;-70
2021/08/16 09:09:16;;;;;;;7.13;4.18;;;;;;;33.13;31.11;100144.91;2627980;47;20600;-72
2021/08/16 09:11:50;;;;;;;8.75;4.55;;;;;;;33.94;30.90;100137.53;2627829;54;20110;-73
2021/08/16 09:14:17;;;;;;;5.28;4.20;;;;;;;33.22;30.26;100133.25;2627811;54;20007;-71
2021/08/16 09:16:48;;;;;;;5.72;4.18;;;;;;;33.46;31.16;100127.66;2628191;47;20031;-70
2021/08/16 09:19:16;;;;;;;8.38;5.03;;;;;;;33.18;30.68;100130.19;2626249;54;20620;-71
2021/08/16 09:21:48;;;;;;;5.90;4.35;;;;;;;33.28;30.20;100129.88;2625334;47;20027;-71
2021/08/16 09:24:21;;;;;;;5.55;4.30;;;;;;;32.99;31.01;100133.41;2625215;54;20014;-73
2021/08/16 09:26:47;;;;;;;8.45;5.00;;;;;;;33.42;30.77;100123.75;2624967;54;20006;-71
2021/08/16 09:29:19;;;;;;;7.60;5.20;;;;;;;33.92;30.38;100121.06;2624930;54;20009;-71
2021/08/16 09:31:53;;;;;;;6.15;3.97;;;;;;;33.11;30.06;100125.84;2624734;54;20006;-68
2021/08/16 09:34:48;;;;;;;8.57;4.75;;;;;;;33.46;30.60;100111.84;2624401;54;20021;-70
2021/08/16 09:37:20;;;;;;;6.15;4.20;;;;;;;34.45;29.29;100109.09;2624206;54;20034;-70
2021/08/16 09:39:59;;;;;;;5.22;4.13;;;;;;;33.38;30.39;100111.16;2624388;54;20030;-70
2021/08/16 09:42:27;;;;;;;6.53;4.47;;;;;;;33.24;30.52;100112.78;2624563;31;20751;-71
2021/08/16 09:44:54;;;;;;;7.75;4.45;;;;;;;33.73;30.02;100107.69;2623888;54;20009;-69
2021/08/16 09:47:20;;;;;;;6.45;4.82;;;;;;;34.35;29.13;100105.97;2624090;54;20018;-69
2021/08/16 09:50:02;;;;;;;5.07;4.20;;;;;;;33.71;28.70;100105.25;2624249;47;20007;-70
2021/08/16 09:52:41;;;;;;;6.65;4.28;;;;;;;34.15;29.12;100105.03;2624377;47;20034;-69
2021/08/16 10:00:06;;;;;;;6.35;4.18;;;;;;;34.77;27.53;100099.78;2623772;54;20071;-69
2021/08/16 10:02:32;;;;;;;8.23;4.28;;;;;;;34.75;27.76;100102.63;2625448;54;20082;-70
2021/08/16 10:04:58;;;;;;;4.63;4.10;;;;;;;34.32;27.46;100098.47;2624879;54;20018;-69
2021/08/16 10:07:34;;;;;;;4.65;3.95;;;;;;;34.46;27.59;100094.06;2625416;54;20010;-70
2021/08/16 10:10:01;;;;;;;5.50;4.43;;;;;;;34.69;27.15;100087.53;2624812;54;20029;-68
2021/08/16 10:12:28;;;;;;;6.00;4.22;;;;;;;33.82;28.09;100083.59;2624961;54;20011;-70
2021/08/16 10:14:55;;;;;;;6.65;4.20;;;;;;;34.26;27.08;100080.75;2623926;47;20019;-71
2021/08/16 10:17:38;;;;;;;8.73;4.15;;;;;;;34.49;27.85;100081.31;2625459;54;20006;-71
2021/08/16 10:20:06;;;;;;;5.53;4.05;;;;;;;34.32;27.41;100077.31;2624828;54;20068;-70
2021/08/16 10:22:39;;;;;;;5.97;4.60;;;;;;;34.22;27.70;100076.84;2625090;54;20014;-70
2021/08/16 10:25:13;;;;;;;5.85;4.10;;;;;;;34.57;27.73;100061.84;2627543;54;20006;-70
2021/08/16 10:27:40;;;;;;;5.55;4.07;;;;;;;35.44;27.55;100063.63;2627191;54;20006;-70
2021/08/16 10:30:12;;;;;;;6.25;4.10;;;;;;;34.96;27.45;100055.94;2624916;54;20009;-71
2021/08/16 10:32:38;;;;;;;5.50;4.40;;;;;;;35.22;27.50;100056.06;2623754;54;20007;-69
2021/08/16 10:35:13;;;;;;;6.82;4.18;;;;;;;34.83;27.21;100054.88;2625338;54;20010;-72
2021/08/16 10:37:43;;;;;;;5.82;4.28;;;;;;;34.32;27.73;100048.28;2627481;54;20002;-71
2021/08/16 10:40:25;;;;;;;5.47;4.30;;;;;;;35.17;27.48;100050.53;2627347;54;20014;-71
2021/08/16 10:42:55;;;;;;;5.75;4.40;;;;;;;36.41;25.27;100054.09;2626706;47;20003;-69
2021/08/16 10:45:28;;;;;;;6.88;4.13;;;;;;;34.49;26.63;100048.78;2627837;54;20117;-70
2021/08/16 10:48:06;;;;;;;4.72;3.90;;;;;;;35.42;26.30;100044.47;2625777;54;20022;-70
2021/08/16 10:50:33;;;;;;;4.80;4.00;;;;;;;35.74;25.99;100046.38;2623500;47;20009;-70
2021/08/16 10:53:09;;;;;;;4.93;3.65;;;;;;;35.60;25.52;100044.75;2624548;54;20006;-69
2021/08/16 10:55:39;;;;;;;5.55;3.75;;;;;;;34.55;25.98;100032.16;2625706;54;20003;-70
2021/08/16 10:58:07;;;;;;;4.10;3.70;;;;;;;35.52;25.00;100038.81;2625393;54;20009;-73
2021/08/16 11:00:33;;;;;;;5.50;3.60;;;;;;;36.70;24.92;100028.94;2624975;54;20542;-72
2021/08/16 11:02:59;;;;;;;4.68;3.88;;;;;;;35.17;25.13;100024.91;2625611;54;20037;-70
2021/08/16 11:05:30;;;;;;;4.90;3.70;;;;;;;35.67;25.18;100020.94;2626110;54;20018;-73
2021/08/16 11:07:58;;;;;;;4.90;3.67;;;;;;;34.78;26.02;100008.91;2628132;54;20218;-71
2021/08/16 11:10:23;;;;;;;4.50;3.50;;;;;;;35.51;25.71;100018.69;2628272;54;20030;-72
2021/08/16 11:12:49;;;;;;;4.20;3.40;;;;;;;35.95;24.32;100012.78;2626928;47;20003;-70
2021/08/16 11:15:19;;;;;;;6.75;3.65;;;;;;;37.02;24.24;100006.75;2627135;54;20003;-71
2021/08/16 11:17:46;;;;;;;5.45;3.67;;;;;;;35.44;25.01;100004.56;2626784;54;20062;-72
2021/08/16 11:20:16;;;;;;;5.65;3.70;;;;;;;35.09;25.03;100006.56;2626115;47;20033;-71
2021/08/16 11:22:52;;;;;;;6.03;3.58;;;;;;;36.12;24.59;100003.38;2627088;54;20003;-71
2021/08/16 11:25:17;;;;;;;4.60;3.85;;;;;;;36.35;25.36;100001.09;2627418;54;19994;-71
2021/08/16 11:27:43;;;;;;;5.32;3.90;;;;;;;36.18;25.69;99999.91;2626840;54;20007;-69
2021/08/16 11:30:11;;;;;;;4.63;3.83;;;;;;;36.30;24.68;99998.25;2625915;46;20014;-70
2021/08/16 11:32:39;;;;;;;6.60;4.20;;;;;;;36.61;24.69;99982.44;2627178;54;20014;-72
2021/08/16 11:35:06;;;;;;;6.80;3.67;;;;;;;35.42;25.03;99980.16;2627933;54;20002;-70
2021/08/16 11:37:35;;;;;;;5.97;3.80;;;;;;;35.91;24.33;99982.41;2626845;47;20519;-71
2021/08/16 11:40:02;;;;;;;5.47;3.55;;;;;;;36.40;23.29;99977.44;2627647;54;20580;-71
2021/08/16 11:42:28;;;;;;;4.15;3.40;;;;;;;36.45;22.80;99974.97;2628121;46;20026;-70
2021/08/16 11:45:05;;;;;;;4.18;3.10;;;;;;;35.58;21.82;99967.38;2629078;46;20006;-71
2021/08/16 11:47:33;;;;;;;5.40;2.72;;;;;;;36.40;20.17;99972.97;2628954;54;20014;-73
2021/08/16 11:50:07;;;;;;;4.53;2.40;;;;;;;36.35;21.36;99971.94;2629692;54;20041;-70
2021/08/16 11:52:34;;;;;;;2.53;2.10;;;;;;;36.24;19.67;99959.34;2629865;54;20007;-70
2021/08/16 11:55:04;;;;;;;4.88;2.55;;;;;;;35.70;20.44;99963.09;2629999;54;20006;-73
2021/08/16 11:57:32;;;;;;;2.30;2.00;;;;;;;36.58;20.81;99952.91;2630171;54;20045;-70
2021/08/16 11:59:59;;;;;;;4.25;2.67;;;;;;;37.28;20.81;99947.41;2630129;54;20067;-73
2021/08/16 12:02:38;;;;;;;3.08;2.22;;;;;;;36.85;20.36;99949.91;2628641;54;20006;-71
2021/08/16 12:05:05;;;;;;;3.55;2.50;;;;;;;37.12;20.21;99939.97;2629752;46;20041;-73
2021/08/16 12:07:31;;;;;;;4.13;2.63;;;;;;;36.03;20.66;99944.53;2629706;54;20552;-73
2021/08/16 12:09:58;;;;;;;3.10;2.80;;;;;;;36.60;21.23;99934.94;2629392;54;20014;-71
2021/08/16 12:12:28;;;;;;;8.40;3.45;;;;;;;37.25;21.38;99938.03;2629350;54;20011;-72
2021/08/16 12:15:06;;;;;;;5.32;2.60;;;;;;;37.28;20.90;99928.84;2629061;47;20030;-72
2021/08/16 12:17:33;;;;;;;3.40;3.10;;;;;;;38.13;20.51;99922.72;2629041;46;20007;-71
2021/08/16 12:20:04;;;;;;;4.10;2.83;;;;;;;36.10;22.37;99924.13;2629091;54;19999;-71
2021/08/16 12:22:30;;;;;;;5.75;3.00;;;;;;;37.18;22.07;99928.50;2628107;54;20045;-70
2021/08/16 12:25:08;;;;;;;4.30;2.80;;;;;;;37.16;20.35;99919.94;2627292;54;20014;-71
2021/08/16 12:27:34;;;;;;;4.80;2.72;;;;;;;36.21;20.98;99918.16;2626828;54;20573;-72
2021/08/16 12:30:00;;;;;;;4.38;2.70;;;;;;;35.78;20.70;99926.81;2627722;54;20534;-73
2021/08/16 12:32:30;;;;;;;4.03;2.50;;;;;;;37.29;20.17;99920.66;2625997;54;20006;-69
2021/08/16 12:35:02;;;;;;;5.80;2.60;;;;;;;37.69;19.40;99907.84;2625828;54;20011;-71
2021/08/16 12:37:30;;;;;;;4.43;2.60;;;;;;;36.59;19.76;99910.28;2625359;54;20106;-70
2021/08/16 12:40:13;;;;;;;3.15;2.58;;;;;;;36.79;20.16;99915.47;2625831;54;20010;-70
2021/08/16 12:42:44;;;;;;;4.57;2.78;;;;;;;36.03;21.14;99906.63;2626251;54;20011;-73
2021/08/16 12:45:12;;;;;;;5.07;2.78;;;;;;;35.77;19.41;99915.44;2623288;47;19998;-68
2021/08/16 12:47:39;;;;;;;5.07;2.50;;;;;;;36.76;18.46;99905.28;2623223;54;20013;-73
2021/08/16 12:50:09;;;;;;;3.70;2.40;;;;;;;37.35;18.85;99903.06;2624807;47;20115;-72
2021/08/16 12:52:37;;;;;;;3.58;2.50;;;;;;;36.16;19.36;99893.34;2625554;54;20021;-76
2021/08/16 12:55:05;;;;;;;3.25;2.42;;;;;;;36.65;19.69;99890.06;2623348;47;20007;-70
2021/08/16 12:57:30;;;;;;;6.10;2.60;;;;;;;37.08;19.17;99891.03;2623199;47;20062;-69
2021/08/16 12:59:56;;;;;;;4.63;2.50;;;;;;;36.54;18.94;99888.91;2623075;47;20007;-70
2021/08/16 13:02:25;;;;;;;3.55;2.40;;;;;;;36.53;18.88;99881.97;2624916;54;20011;-72
2021/08/16 13:04:53;;;;;;;2.83;2.40;;;;;;;37.17;19.65;99874.63;2623413;54;20038;-72
2021/08/16 13:07:19;;;;;;;3.63;3.08;;;;;;;37.05;19.33;99876.34;2623243;47;20018;-72
2021/08/16 13:09:46;;;;;;;5.13;3.17;;;;;;;36.83;19.42;99872.41;2624585;54;20007;-71
2021/08/16 13:12:11;;;;;;;4.40;2.72;;;;;;;35.68;19.76;99867.19;2625086;54;20063;-72
2021/08/16 13:14:38;;;;;;;4.03;2.78;;;;;;;36.20;19.19;99863.56;2625330;54;20060;-71
2021/08/16 13:20:09;;;;;;;3.17;2.70;;;;;;;36.51;19.53;99854.84;2624407;54;20019;-71
2021/08/16 13:22:34;;;;;;;5.60;3.70;;;;;;;36.44;20.00;99857.56;2624524;47;20019;-73
2021/08/16 13:25:00;;;;;;;7.25;4.70;;;;;;;36.60;19.55;99848.28;2624256;47;20030;-71
2021/08/16 13:27:25;;;;;;;6.10;4.75;;;;;;;36.82;19.13;99859.34;2624463;54;20018;-69
2021/08/16 13:29:50;;;;;;;6.28;4.00;;;;;;;35.99;19.27;99852.47;2624995;54;20010;-74
2021/08/16 13:32:16;;;;;;;5.68;4.40;;;;;;;36.13;20.24;99854.81;2624909;54;20022;-69
2021/08/16 13:34:41;;;;;;;4.97;4.45;;;;;;;35.82;20.32;99854.72;2627209;39;20442;-70
2021/08/16 13:37:10;;;;;;;4.57;3.75;;;;;;;35.70;20.76;99859.84;2626349;47;20081;-70
2021/08/16 13:39:35;;;;;;;6.70;4.15;;;;;;;35.92;20.65;99841.88;2626764;54;20035;-72
2021/08/16 13:42:01;;;;;;;5.68;4.03;;;;;;;36.42;20.23;99845.53;2626766;54;20029;-71
2021/08/16 13:44:27;;;;;;;4.93;3.88;;;;;;;36.79;19.29;99843.84;2628794;39;20409;-70
2021/08/16 13:46:52;;;;;;;4.38;3.95;;;;;;;36.23;19.82;99838.50;2625370;54;20018;-71
2021/08/16 13:49:17;;;;;;;4.85;3.85;;;;;;;35.46;19.58;99835.88;2626175;54;20102;-71
2021/08/16 13:51:43;;;;;;;6.60;4.20;;;;;;;36.19;20.14;99832.00;2627299;54;20026;-71
2021/08/16 13:54:10;;;;;;;4.65;3.30;;;;;;;35.59;20.36;99826.09;2628490;47;19987;-70
2021/08/16 13:56:36;;;;;;;5.70;3.70;;;;;;;35.78;19.24;99820.91;2627646;54;20034;-71
2021/08/16 13:59:02;;;;;;;5.55;3.67;;;;;;;36.08;20.05;99822.06;2627436;54;20018;-73
2021/08/16 14:01:29;;;;;;;6.18;3.85;;;;;;;36.33;19.76;99822.97;2627619;47;20006;-71
2021/08/16 14:03:55;;;;;;;6.40;3.28;;;;;;;35.34;20.42;99821.63;2628418;54;20006;-70
2021/08/16 14:06:20;;;;;;;5.22;3.10;;;;;;;35.27;20.72;99816.34;2628573;54;20580;-71
2021/08/16 14:08:46;;;;;;;3.58;3.10;;;;;;;35.47;20.59;99817.16;2629912;54;20002;-69
2021/08/16 14:11:11;;;;;;;7.15;3.40;;;;;;;35.36;20.51;99817.75;2629548;46;20002;-71
2021/08/16 14:13:36;;;;;;;5.25;3.13;;;;;;;35.50;20.14;99814.09;2629503;54;20030;-72
2021/08/16 14:16:02;;;;;;;6.13;3.00;;;;;;;35.80;20.25;99813.56;2629533;54;20021;-72
2021/08/16 14:18:27;;;;;;;5.57;2.90;;;;;;;35.56;19.85;99810.59;2628134;54;20010;-69
2021/08/16 14:29:05;;;;;;;4.15;2.90;;;;;;;35.79;19.39;99796.91;2625689;54;20183;-70
2021/08/16 14:31:32;;;;;;;6.05;2.88;;;;;;;35.78;19.69;99802.38;2628459;54;20035;-73
2021/08/16 14:33:58;;;;;;;2.90;2.40;;;;;;;35.44;18.86;99806.13;2626876;47;20006;-70
2021/08/16 14:36:25;;;;;;;5.53;2.58;;;;;;;35.43;19.42;99804.50;2626353;54;20010;-69
2021/08/16 14:38:51;;;;;;;5.75;2.60;;;;;;;35.75;19.32;99801.78;2625719;54;20011;-70
2021/08/16 14:41:17;;;;;;;4.35;2.78;;;;;;;35.96;18.80;99795.41;2626385;46;20054;-69
2021/08/16 14:43:42;;;;;;;4.97;3.08;;;;;;;35.65;19.03;99803.25;2623512;47;20098;-73
2021/08/16 14:48:36;;;;;;;2.70;2.30;;;;;;;35.11;19.41;99797.44;2627565;54;20030;-70
2021/08/16 14:55:59;;;;;;;4.95;2.78;;;;;;;35.89;20.04;99783.22;2602252;54;20509;-70
2021/08/16 14:58:25;;;;;;;3.70;2.90;;;;;;;35.13;19.52;99783.00;2628613;47;20046;-70
2021/08/16 15:00:50;;;;;;;3.00;2.70;;;;;;;34.77;19.07;99787.84;2629624;54;20238;-74
2021/08/16 15:03:16;;;;;;;4.47;2.83;;;;;;;34.75;19.32;99784.59;2629618;54;20632;-70
2021/08/16 15:08:10;;;;;;;4.85;2.90;;;;;;;35.11;20.06;99779.75;2631555;54;20011;-71
2021/08/16 15:13:03;;;;;;;9.68;3.42;;;;;;;34.66;20.45;99783.19;2596388;54;20086;-71
2021/08/16 15:15:29;;;;;;;6.07;3.13;;;;;;;34.78;20.38;99781.56;2626107;54;20073;-70
2021/08/16 15:17:57;;;;;;;10.55;3.35;;;;;;;34.66;20.29;99775.25;2607233;54;20937;31
2021/08/16 15:20:28;;;;;;;3.97;2.92;;;;;;;34.64;20.98;99777.28;2586080;54;21055;31
2021/08/16 15:30:22;;;;;;;7.43;3.03;;;;;;;34.77;20.32;99778.09;2603227;54;20037;31